createdAt,value
2018-04-02T00:00:01.281Z,82.20
2018-04-02T00:02:28.789Z,82.30
2018-04-02T00:04:56.314Z,82.10
2018-04-02T00:07:23.845Z,82.50
2018-04-02T00:09:52.109Z,83.20
2018-04-02T00:12:20.378Z,83.50
2018-04-02T00:14:48.692Z,83.10
2018-04-02T00:17:16.947Z,83.50
2018-04-02T00:19:44.441Z,83.50
2018-04-02T00:22:12.716Z,84.60
2018-04-02T00:24:40.981Z,84.50
2018-04-02T00:27:09.865Z,85.00
2018-04-02T00:29:39.015Z,84.60
2018-04-02T00:32:06.505Z,84.60
2018-04-02T00:34:34.001Z,84.90
2018-04-02T00:37:02.879Z,85.30
2018-04-02T00:39:31.215Z,85.70
2018-04-02T00:41:58.699Z,85.10
2018-04-02T00:44:26.212Z,85.10
2018-04-02T00:46:54.465Z,84.70
2018-04-02T00:49:22.005Z,84.70
2018-04-02T00:51:50.267Z,84.40
2018-04-02T00:54:17.793Z,84.00
2018-04-02T00:56:45.304Z,84.10
2018-04-02T00:59:12.809Z,84.30
2018-04-02T01:01:41.127Z,84.00
2018-04-02T01:04:08.710Z,84.00
2018-04-02T01:06:36.234Z,84.20
2018-04-02T01:09:04.601Z,84.00
2018-04-02T01:11:32.877Z,83.60
2018-04-02T01:14:00.418Z,83.60
2018-04-02T01:16:28.086Z,83.90
2018-04-02T01:18:55.704Z,84.40
2018-04-02T01:21:24.019Z,84.20
2018-04-02T01:23:51.518Z,84.10
2018-04-02T01:26:19.032Z,84.40
2018-04-02T01:28:46.522Z,84.00
2018-04-02T01:31:14.039Z,84.20
2018-04-02T01:33:42.955Z,84.20
2018-04-02T01:36:10.463Z,84.20
2018-04-02T01:38:38.028Z,84.00
2018-04-02T01:41:05.502Z,84.00
2018-04-02T01:43:33.012Z,83.90
2018-04-02T01:46:00.516Z,83.50
2018-04-02T01:48:28.110Z,83.60
2018-04-02T01:50:56.391Z,83.50
2018-04-02T01:53:25.205Z,84.10
2018-04-02T01:55:52.703Z,83.50
2018-04-02T01:58:20.265Z,84.10
2018-04-02T02:00:47.789Z,84.10
2018-04-02T02:03:15.291Z,83.70
2018-04-02T02:05:43.063Z,84.20
2018-04-02T02:08:10.567Z,84.10
2018-04-02T02:10:40.027Z,84.10
2018-04-02T02:13:07.531Z,84.00
2018-04-02T02:15:35.029Z,84.00
2018-04-02T02:18:03.397Z,83.70
2018-04-02T02:20:30.931Z,83.70
2018-04-02T02:22:58.484Z,83.90
2018-04-02T02:25:26.145Z,84.10
2018-04-02T02:27:53.636Z,84.70
2018-04-02T02:30:21.927Z,84.50
2018-04-02T02:32:50.199Z,84.60
2018-04-02T02:35:18.483Z,84.40
2018-04-02T02:37:46.776Z,84.30
2018-04-02T02:40:14.289Z,85.00
2018-04-02T02:42:41.808Z,84.50
2018-04-02T02:45:09.318Z,84.50
2018-04-02T02:47:36.815Z,84.60
2018-04-02T02:50:05.259Z,84.90
2018-04-02T02:52:32.855Z,84.90
2018-04-02T02:55:01.137Z,84.50
2018-04-02T02:57:28.637Z,84.30
2018-04-02T02:59:56.152Z,85.00
2018-04-02T03:02:24.138Z,84.20
2018-04-02T03:04:52.985Z,84.10
2018-04-02T03:07:20.485Z,84.50
2018-04-02T03:09:48.003Z,84.50
2018-04-02T03:12:15.503Z,84.40
2018-04-02T03:14:43.241Z,84.40
2018-04-02T03:17:10.722Z,84.20
2018-04-02T03:19:38.308Z,84.50
2018-04-02T03:22:05.887Z,84.80
2018-04-02T03:24:34.629Z,84.30
2018-04-02T03:27:02.129Z,84.30
2018-04-02T03:29:29.619Z,84.50
2018-04-02T03:31:57.897Z,84.90
2018-04-02T03:34:26.287Z,85.10
2018-04-02T03:36:54.677Z,85.20
2018-04-02T03:39:22.177Z,85.20
2018-04-02T03:41:49.685Z,85.40
2018-04-02T03:44:17.961Z,85.60
2018-04-02T03:46:45.498Z,85.50
2018-04-02T03:49:13.039Z,85.70
2018-04-02T03:51:40.537Z,85.50
2018-04-02T03:54:08.073Z,85.90
2018-04-02T03:56:35.553Z,85.70
2018-04-02T03:59:03.076Z,85.80
2018-04-02T04:01:30.569Z,85.60
2018-04-02T04:03:58.075Z,86.10
2018-04-02T04:06:26.339Z,85.80
2018-04-02T04:08:53.845Z,85.80
2018-04-02T04:11:21.344Z,86.00
2018-04-02T04:13:48.851Z,86.10
2018-04-02T04:16:17.158Z,86.40
2018-04-02T04:18:44.719Z,86.40
2018-04-02T04:21:12.903Z,86.20
2018-04-02T04:23:40.393Z,86.20
2018-04-02T04:26:07.893Z,86.00
2018-04-02T04:28:36.145Z,85.90
2018-04-02T04:31:03.635Z,85.90
2018-04-02T04:33:31.901Z,86.10
2018-04-02T04:35:59.401Z,86.00
2018-04-02T04:38:26.911Z,85.80
2018-04-02T04:40:54.429Z,86.00
2018-04-02T04:43:21.927Z,86.40
2018-04-02T04:45:49.435Z,86.50
2018-04-02T04:48:17.695Z,87.00
2018-04-02T04:50:45.375Z,87.00
2018-04-02T04:53:13.649Z,87.00
2018-04-02T04:55:41.187Z,87.00
2018-04-02T04:58:08.695Z,87.00
2018-04-02T05:00:36.966Z,86.70
2018-04-02T05:03:05.252Z,86.30
2018-04-02T05:05:33.595Z,85.40
2018-04-02T05:08:01.127Z,85.40
2018-04-02T05:10:28.647Z,85.00
2018-04-02T05:12:56.900Z,84.70
2018-04-02T05:15:24.411Z,84.70
2018-04-02T05:17:52.655Z,84.30
2018-04-02T05:20:20.311Z,84.40
2018-04-02T05:22:48.616Z,84.10
2018-04-02T05:25:16.083Z,84.10
2018-04-02T05:27:43.616Z,84.00
2018-04-02T05:30:11.122Z,84.00
2018-04-02T05:32:39.377Z,83.80
2018-04-02T05:35:07.725Z,83.70
2018-04-02T05:37:35.236Z,83.80
2018-04-02T05:40:03.489Z,83.20
2018-04-02T05:42:30.991Z,83.20
2018-04-02T05:44:59.263Z,82.70
2018-04-02T05:47:27.529Z,83.40
2018-04-02T05:49:55.014Z,83.00
2018-04-02T05:52:23.329Z,82.50
2018-04-02T05:54:50.826Z,82.50
2018-04-02T05:57:18.326Z,82.50
2018-04-02T05:59:46.605Z,82.10
2018-04-02T06:02:14.873Z,82.10
2018-04-02T06:04:43.137Z,82.20
2018-04-02T06:07:10.697Z,82.10
2018-04-02T06:09:38.203Z,82.20
2018-04-02T06:12:05.808Z,81.70
2018-04-02T06:14:33.341Z,81.80
2018-04-02T06:17:01.435Z,81.70
2018-04-02T06:19:28.951Z,80.90
2018-04-02T06:21:56.448Z,80.90
2018-04-02T06:24:24.445Z,80.00
2018-04-02T06:26:51.965Z,79.90
2018-04-02T06:29:20.255Z,80.80
2018-04-02T06:31:47.747Z,80.80
2018-04-02T06:34:15.253Z,79.50
2018-04-02T06:36:43.516Z,78.30
2018-04-02T06:39:11.038Z,78.30
2018-04-02T06:41:38.577Z,78.30
2018-04-02T06:44:06.853Z,77.70
2018-04-02T06:46:35.119Z,77.70
2018-04-02T06:49:02.621Z,77.60
2018-04-02T06:51:30.181Z,77.70
2018-04-02T06:53:57.737Z,77.90
2018-04-02T06:56:25.249Z,77.70
2018-04-02T06:58:52.771Z,77.00
2018-04-02T07:01:20.324Z,76.60
2018-04-02T07:03:48.593Z,75.90
2018-04-02T07:06:16.890Z,76.10
2018-04-02T07:08:44.400Z,75.90
2018-04-02T07:11:11.905Z,75.70
2018-04-02T07:13:40.269Z,75.00
2018-04-02T07:16:07.787Z,74.90
2018-04-02T07:18:35.295Z,74.70
2018-04-02T07:21:03.561Z,74.40
2018-04-02T07:23:31.113Z,74.30
2018-04-02T07:25:58.649Z,74.20
2018-04-02T07:28:26.189Z,73.90
2018-04-02T07:30:53.750Z,73.20
2018-04-02T07:33:22.231Z,73.50
2018-04-02T07:35:50.562Z,73.10
2018-04-02T07:38:18.101Z,73.00
2018-04-02T07:40:45.605Z,72.90
2018-04-02T07:43:13.295Z,72.30
2018-04-02T07:45:41.581Z,73.10
2018-04-02T07:48:09.867Z,73.30
2018-04-02T07:50:38.208Z,73.00
2018-04-02T07:53:05.691Z,73.00
2018-04-02T07:55:33.201Z,72.70
2018-04-02T07:58:00.771Z,72.20
2018-04-02T08:00:28.266Z,72.60
2018-04-02T08:02:55.836Z,72.30
2018-04-02T08:05:23.367Z,73.60
2018-04-02T08:07:50.891Z,72.40
2018-04-02T08:10:19.244Z,73.50
2018-04-02T08:12:46.753Z,73.50
2018-04-02T08:15:14.355Z,73.00
2018-04-02T08:17:41.923Z,72.70
2018-04-02T08:20:09.448Z,72.80
2018-04-02T08:22:36.960Z,72.70
2018-04-02T08:25:04.705Z,73.20
2018-04-02T08:27:32.204Z,72.20
2018-04-02T08:29:59.732Z,71.80
2018-04-02T08:32:27.268Z,72.00
2018-04-02T08:34:55.671Z,71.30
2018-04-02T08:37:23.261Z,71.20
2018-04-02T08:39:50.774Z,70.70
2018-04-02T08:42:19.044Z,69.70
2018-04-02T08:44:47.301Z,68.90
2018-04-02T08:47:15.032Z,68.90
2018-04-02T08:49:42.640Z,68.60
2018-04-02T08:52:10.162Z,68.90
2018-04-02T08:54:37.764Z,69.40
2018-04-02T08:57:05.324Z,68.30
2018-04-02T08:59:32.814Z,68.20
2018-04-02T09:02:00.300Z,67.80
2018-04-02T09:04:27.820Z,68.20
2018-04-02T09:06:56.122Z,67.80
2018-04-02T09:09:24.402Z,67.80
2018-04-02T09:11:51.877Z,67.20
2018-04-02T09:14:20.254Z,65.00
2018-04-02T09:16:48.513Z,66.20
2018-04-02T09:19:16.641Z,66.20
2018-04-02T09:21:44.126Z,65.40
2018-04-02T09:24:11.644Z,64.90
2018-04-02T09:26:39.930Z,65.20
2018-04-02T09:29:08.407Z,65.10
2018-04-02T09:31:37.089Z,64.50
2018-04-02T09:34:05.369Z,64.70
2018-04-02T09:36:33.664Z,64.30
2018-04-02T09:39:01.968Z,64.60
2018-04-02T09:41:29.572Z,64.50
2018-04-02T09:43:57.067Z,64.10
2018-04-02T09:46:25.344Z,63.10
2018-04-02T09:48:53.620Z,63.20
2018-04-02T09:51:21.911Z,61.10
2018-04-02T09:53:50.282Z,58.40
2018-04-02T09:56:17.792Z,58.40
2018-04-02T09:58:45.432Z,60.30
2018-04-02T10:01:13.692Z,61.20
2018-04-02T10:03:41.230Z,61.20
2018-04-02T10:06:08.911Z,58.60
2018-04-02T10:08:36.475Z,59.20
2018-04-02T10:11:03.974Z,56.90
2018-04-02T10:13:32.256Z,53.70
2018-04-02T10:16:00.507Z,54.00
2018-04-02T10:18:28.924Z,53.90
2018-04-02T10:20:56.417Z,54.70
2018-04-02T10:23:23.913Z,53.70
2018-04-02T10:25:51.622Z,53.90
2018-04-02T10:28:19.160Z,52.80
2018-04-02T10:30:47.468Z,51.80
2018-04-02T10:33:15.021Z,51.80
2018-04-02T10:35:43.485Z,52.30
2018-04-02T10:38:11.791Z,53.50
2018-04-02T10:40:40.044Z,53.40
2018-04-02T10:43:07.690Z,53.30
2018-04-02T10:45:35.203Z,52.90
2018-04-02T10:48:02.701Z,52.80
2018-04-02T10:50:30.266Z,52.70
2018-04-02T10:52:57.753Z,53.00
2018-04-02T10:55:25.251Z,52.20
2018-04-02T10:57:54.364Z,52.40
2018-04-02T11:00:21.890Z,52.40
2018-04-02T11:02:49.373Z,51.70
2018-04-02T11:05:17.656Z,50.10
2018-04-02T11:07:45.914Z,50.80
2018-04-02T11:10:14.800Z,50.50
2018-04-02T11:12:43.101Z,49.50
2018-04-02T11:15:11.381Z,49.20
2018-04-02T11:17:39.655Z,49.10
2018-04-02T11:20:07.932Z,49.20
2018-04-02T11:22:35.426Z,49.10
2018-04-02T11:25:03.805Z,47.80
2018-04-02T11:27:31.312Z,48.60
2018-04-02T11:29:59.374Z,49.00
2018-04-02T11:32:26.982Z,49.20
2018-04-02T11:34:55.410Z,48.00
2018-04-02T11:37:22.941Z,48.40
2018-04-02T11:39:51.220Z,48.90
2018-04-02T11:42:19.490Z,48.90
2018-04-02T11:44:48.500Z,48.10
2018-04-02T11:47:16.799Z,48.10
2018-04-02T11:49:45.611Z,48.10
2018-04-02T11:52:13.119Z,48.30
2018-04-02T11:54:41.418Z,48.20
2018-04-02T11:57:09.727Z,48.50
2018-04-02T11:59:37.969Z,47.80
2018-04-02T12:02:06.244Z,48.50
2018-04-02T12:04:34.258Z,48.20
2018-04-02T12:07:01.761Z,48.00
2018-04-02T12:09:29.268Z,49.00
2018-04-02T12:11:57.265Z,48.80
2018-04-02T12:14:24.832Z,48.60
2018-04-02T12:16:52.330Z,49.10
2018-04-02T12:19:19.850Z,48.60
2018-04-02T12:21:47.362Z,48.40
2018-04-02T12:24:14.880Z,47.50
2018-04-02T12:26:42.389Z,46.90
2018-04-02T12:29:09.918Z,47.00
2018-04-02T12:31:37.410Z,46.90
2018-04-02T12:34:04.958Z,46.60
2018-04-02T12:36:32.663Z,47.10
2018-04-02T12:39:01.081Z,47.70
2018-04-02T12:41:28.628Z,47.70
2018-04-02T12:43:56.919Z,47.30
2018-04-02T12:46:25.194Z,47.90
2018-04-02T12:48:53.451Z,47.60
2018-04-02T12:51:20.972Z,47.60
2018-04-02T12:53:48.482Z,47.40
2018-04-02T12:56:16.772Z,47.10
2018-04-02T12:58:45.108Z,47.30
2018-04-02T13:01:13.416Z,47.30
2018-04-02T13:03:41.015Z,47.50
2018-04-02T13:06:08.517Z,48.20
2018-04-02T13:08:36.022Z,48.40
2018-04-02T13:11:04.341Z,48.30
2018-04-02T13:13:31.905Z,48.30
2018-04-02T13:16:00.132Z,47.50
2018-04-02T13:18:27.654Z,47.50
2018-04-02T13:20:55.174Z,47.30
2018-04-02T13:23:23.450Z,47.30
2018-04-02T13:25:51.754Z,47.10
2018-04-02T13:28:20.120Z,46.30
2018-04-02T13:30:48.426Z,46.30
2018-04-02T13:33:15.942Z,46.00
2018-04-02T13:35:43.450Z,45.90
2018-04-02T13:38:11.085Z,46.00
2018-04-02T13:40:38.688Z,45.80
2018-04-02T13:43:06.234Z,46.10
2018-04-02T13:45:34.606Z,45.00
2018-04-02T13:48:03.106Z,45.40
2018-04-02T13:50:31.408Z,45.80
2018-04-02T13:52:58.913Z,45.80
2018-04-02T13:55:26.442Z,45.30
2018-04-02T13:57:54.035Z,44.80
2018-04-02T14:00:21.550Z,45.90
2018-04-02T14:02:49.040Z,46.60
2018-04-02T14:05:16.549Z,45.90
2018-04-02T14:07:46.002Z,45.70
2018-04-02T14:10:13.524Z,45.70
2018-04-02T14:12:41.016Z,45.90
2018-04-02T14:15:08.551Z,46.20
2018-04-02T14:17:36.890Z,46.90
2018-04-02T14:20:05.568Z,46.90
2018-04-02T14:22:33.095Z,45.80
2018-04-02T14:25:01.402Z,45.80
2018-04-02T14:27:28.922Z,45.70
2018-04-02T14:29:56.419Z,45.50
2018-04-02T14:32:24.678Z,47.50
2018-04-02T14:34:53.562Z,47.00
2018-04-02T14:37:21.068Z,46.90
2018-04-02T14:39:48.566Z,46.60
2018-04-02T14:42:16.086Z,47.10
2018-04-02T14:44:44.584Z,45.10
2018-04-02T14:47:12.403Z,45.00
2018-04-02T14:49:40.698Z,46.40
2018-04-02T14:52:08.998Z,47.00
2018-04-02T14:54:37.273Z,47.40
2018-04-02T14:57:05.725Z,47.40
2018-04-02T14:59:33.383Z,47.40
2018-04-02T15:02:00.965Z,47.20
2018-04-02T15:04:29.273Z,45.70
2018-04-02T15:06:57.689Z,45.60
2018-04-02T15:09:25.193Z,45.50
2018-04-02T15:11:53.458Z,47.80
2018-04-02T15:14:21.169Z,47.60
2018-04-02T15:16:49.448Z,48.90
2018-04-02T15:19:19.242Z,49.40
2018-04-02T15:21:47.512Z,48.70
2018-04-02T15:24:15.014Z,48.20
2018-04-02T15:26:43.277Z,48.90
2018-04-02T15:29:11.585Z,48.90
2018-04-02T15:31:39.826Z,48.80
2018-04-02T15:34:07.328Z,48.70
2018-04-02T15:36:34.892Z,49.20
2018-04-02T15:39:02.422Z,47.60
2018-04-02T15:41:30.702Z,47.60
2018-04-02T15:43:58.973Z,48.00
2018-04-02T15:46:26.470Z,47.70
2018-04-02T15:48:54.964Z,46.80
2018-04-02T15:51:22.480Z,46.80
2018-04-02T15:53:49.968Z,45.90
2018-04-02T15:56:18.261Z,46.50
2018-04-02T15:58:45.766Z,46.50
2018-04-02T16:01:13.279Z,46.60
2018-04-02T16:03:41.573Z,46.30
2018-04-02T16:06:09.848Z,46.60
2018-04-02T16:08:38.148Z,46.40
2018-04-02T16:11:05.782Z,46.40
2018-04-02T16:13:34.124Z,47.20
2018-04-02T16:16:01.613Z,47.50
2018-04-02T16:18:30.624Z,47.50
2018-04-02T16:20:58.914Z,47.40
2018-04-02T16:23:27.262Z,47.40
2018-04-02T16:25:54.791Z,47.40
2018-04-02T16:28:22.572Z,47.50
2018-04-02T16:30:50.057Z,47.40
2018-04-02T16:33:17.551Z,47.40
2018-04-02T16:35:45.822Z,48.30
2018-04-02T16:38:14.574Z,48.30
2018-04-02T16:40:42.182Z,48.30
2018-04-02T16:43:11.222Z,48.80
2018-04-02T16:45:38.704Z,48.70
2018-04-02T16:48:06.220Z,48.90
2018-04-02T16:50:34.492Z,49.20
2018-04-02T16:53:02.979Z,49.30
2018-04-02T16:55:31.257Z,49.50
2018-04-02T16:57:59.534Z,49.30
2018-04-02T17:00:27.924Z,50.00
2018-04-02T17:02:56.268Z,50.10
2018-04-02T17:05:23.864Z,50.00
2018-04-02T17:07:52.972Z,50.90
2018-04-02T17:10:21.216Z,51.30
2018-04-02T17:12:48.918Z,51.30
2018-04-02T17:15:17.260Z,51.80
2018-04-02T17:17:44.779Z,51.80
2018-04-02T17:20:12.305Z,51.60
2018-04-02T17:22:39.839Z,51.50
2018-04-02T17:25:07.496Z,51.80
2018-04-02T17:27:34.993Z,52.00
2018-04-02T17:30:02.549Z,52.10
2018-04-02T17:32:30.821Z,52.30
2018-04-02T17:34:59.652Z,52.30
2018-04-02T17:37:28.004Z,52.90
2018-04-02T17:39:55.545Z,52.60
2018-04-02T17:42:23.058Z,52.80
2018-04-02T17:44:50.538Z,53.30
2018-04-02T17:47:18.801Z,53.90
2018-04-02T17:49:46.303Z,53.70
2018-04-02T17:52:14.177Z,53.80
2018-04-02T17:54:41.679Z,54.20
2018-04-02T17:57:09.989Z,54.00
2018-04-02T17:59:39.569Z,54.50
2018-04-02T18:02:07.899Z,54.90
2018-04-02T18:04:35.460Z,54.90
2018-04-02T18:07:04.540Z,54.80
2018-04-02T18:09:32.828Z,55.10
2018-04-02T18:12:01.088Z,54.90
2018-04-02T18:14:28.609Z,54.90
2018-04-02T18:16:56.228Z,54.80
2018-04-02T18:19:24.530Z,55.40
2018-04-02T18:21:52.457Z,55.20
2018-04-02T18:24:19.974Z,55.50
2018-04-02T18:26:47.597Z,55.50
2018-04-02T18:29:16.753Z,55.60
2018-04-02T18:31:44.245Z,55.60
2018-04-02T18:34:11.757Z,55.80
2018-04-02T18:36:39.264Z,55.80
2018-04-02T18:39:06.820Z,55.90
2018-04-02T18:41:34.311Z,56.10
2018-04-02T18:44:01.868Z,56.30
2018-04-02T18:46:29.487Z,56.70
2018-04-02T18:48:57.163Z,57.10
2018-04-02T18:51:24.717Z,57.00
2018-04-02T18:53:52.215Z,57.00
2018-04-02T18:56:19.805Z,57.40
2018-04-02T18:58:47.336Z,57.40
2018-04-02T19:01:14.831Z,57.40
2018-04-02T19:03:42.417Z,57.40
2018-04-02T19:06:10.677Z,57.60
2018-04-02T19:08:38.232Z,57.60
2018-04-02T19:11:05.710Z,58.20
2018-04-02T19:13:34.003Z,57.50
2018-04-02T19:16:03.012Z,57.70
2018-04-02T19:18:31.289Z,57.60
2018-04-02T19:20:59.559Z,57.80
2018-04-02T19:23:27.824Z,58.10
2018-04-02T19:25:55.337Z,58.10
2018-04-02T19:28:22.845Z,58.30
2018-04-02T19:30:50.496Z,58.30
2018-04-02T19:33:21.341Z,58.20
2018-04-02T19:35:48.996Z,58.20
2018-04-02T19:38:16.954Z,58.50
2018-04-02T19:40:44.500Z,58.30
2018-04-02T19:43:12.759Z,58.30
2018-04-02T19:45:41.128Z,58.40
2018-04-02T19:48:10.203Z,58.90
2018-04-02T19:50:37.720Z,58.40
2018-04-02T19:53:05.221Z,58.60
2018-04-02T19:55:32.780Z,58.70
2018-04-02T19:58:00.421Z,58.90
2018-04-02T20:00:27.971Z,59.00
2018-04-02T20:02:55.902Z,58.90
2018-04-02T20:05:24.047Z,59.40
2018-04-02T20:07:52.425Z,59.90
2018-04-02T20:10:20.835Z,59.80
2018-04-02T20:12:48.526Z,59.90
2018-04-02T20:15:17.676Z,60.00
2018-04-02T20:17:46.991Z,60.00
2018-04-02T20:20:14.518Z,60.00
2018-04-02T20:22:42.795Z,60.00
2018-04-02T20:25:11.174Z,60.50
2018-04-02T20:27:40.061Z,60.10
2018-04-02T20:30:08.151Z,60.00
2018-04-02T20:32:36.973Z,59.80
2018-04-02T20:35:05.454Z,59.70
2018-04-02T20:37:33.923Z,59.80
2018-04-02T20:40:02.203Z,60.70
2018-04-02T20:42:30.478Z,60.20
2018-04-02T20:44:58.756Z,60.20
2018-04-02T20:47:27.666Z,60.00
2018-04-02T20:49:55.203Z,60.00
2018-04-02T20:52:23.186Z,59.90
2018-04-02T20:54:51.574Z,60.00
2018-04-02T20:57:19.974Z,60.40
2018-04-02T20:59:47.585Z,60.40
2018-04-02T21:02:15.166Z,60.20
2018-04-02T21:04:43.880Z,60.30
2018-04-02T21:07:12.598Z,60.50
2018-04-02T21:09:41.429Z,60.50
2018-04-02T21:12:08.961Z,60.50
2018-04-02T21:14:36.609Z,60.70
2018-04-02T21:17:05.056Z,60.50
2018-04-02T21:19:32.601Z,60.50
2018-04-02T21:22:00.119Z,60.30
2018-04-02T21:24:29.031Z,60.50
2018-04-02T21:26:56.665Z,60.50
2018-04-02T21:29:24.948Z,60.30
2018-04-02T21:31:53.233Z,60.40
2018-04-02T21:34:24.224Z,60.40
2018-04-02T21:36:52.731Z,60.40
2018-04-02T21:39:20.257Z,60.60
2018-04-02T21:41:48.016Z,60.70
2018-04-02T21:44:16.808Z,60.70
2018-04-02T21:46:44.518Z,60.50
2018-04-02T21:49:12.327Z,60.70
2018-04-02T21:51:40.615Z,60.90
2018-04-02T21:54:08.168Z,60.90
2018-04-02T21:56:36.440Z,61.30
2018-04-02T21:59:04.714Z,61.20
2018-04-02T22:01:33.014Z,61.00
2018-04-02T22:04:01.290Z,61.00
2018-04-02T22:06:41.494Z,61.20
2018-04-02T22:09:09.005Z,61.20
2018-04-02T22:11:37.290Z,61.10
2018-04-02T22:14:06.628Z,61.50
2018-04-02T22:16:34.159Z,61.10
2018-04-02T22:19:02.526Z,61.10
2018-04-02T22:21:30.810Z,61.10
2018-04-02T22:23:59.124Z,61.30
2018-04-02T22:26:26.641Z,61.30
2018-04-02T22:28:54.179Z,61.20
2018-04-02T22:31:21.877Z,61.20
2018-04-02T22:33:49.532Z,61.30
2018-04-02T22:36:17.074Z,61.30
2018-04-02T22:38:44.764Z,61.40
2018-04-02T22:41:12.275Z,61.30
2018-04-02T22:43:39.817Z,61.40
2018-04-02T22:46:08.105Z,61.50
2018-04-02T22:48:36.416Z,61.70
2018-04-02T22:51:03.986Z,61.70
2018-04-02T22:53:32.059Z,62.10
2018-04-02T22:55:59.560Z,62.00
2018-04-02T22:58:27.287Z,62.10
2018-04-02T23:00:54.830Z,62.20
2018-04-02T23:03:22.505Z,62.20
2018-04-02T23:05:50.047Z,62.10
2018-04-02T23:08:18.335Z,62.20
2018-04-02T23:10:45.858Z,62.10
2018-04-02T23:13:13.356Z,62.00
2018-04-02T23:15:42.721Z,62.20
2018-04-02T23:18:10.220Z,62.20
2018-04-02T23:20:38.512Z,62.30
2018-04-02T23:23:06.788Z,62.10
2018-04-02T23:25:35.059Z,62.10
2018-04-02T23:28:03.333Z,62.40
2018-04-02T23:30:30.833Z,62.40
2018-04-02T23:32:58.336Z,62.90
2018-04-02T23:35:25.850Z,62.30
2018-04-02T23:37:53.355Z,62.20
2018-04-02T23:40:20.853Z,62.10
2018-04-02T23:42:49.113Z,62.90
2018-04-02T23:45:16.748Z,62.10
2018-04-02T23:47:44.278Z,62.20
2018-04-02T23:50:12.530Z,62.20
2018-04-02T23:52:40.113Z,62.20
2018-04-02T23:55:08.370Z,62.60
2018-04-02T23:57:37.390Z,62.60
